createdAt,value
2018-12-21T00:00:59.434Z,100346.73
2018-12-21T00:03:33.518Z,100336.06
2018-12-21T00:06:06.410Z,100324.39
2018-12-21T00:08:39.530Z,100336.06
2018-12-21T00:11:12.541Z,100332.17
2018-12-21T00:13:46.677Z,100329.61
2018-12-21T00:16:24.652Z,100322.66
2018-12-21T00:18:57.531Z,100317.12
2018-12-21T00:46:54.343Z,100311.46
2018-12-21T00:49:27.953Z,100309.73
2018-12-21T00:52:00.573Z,100299.90
2018-12-21T00:54:33.781Z,100293.95
2018-12-21T00:57:06.882Z,100282.97
2018-12-21T00:59:40.128Z,100282.67
2018-12-21T01:02:17.037Z,100276.08
2018-12-21T01:04:49.821Z,100273.81
2018-12-21T01:07:22.769Z,100267.98
2018-12-21T01:09:55.887Z,100271.69
2018-12-21T01:12:28.723Z,100269.31
2018-12-21T01:15:03.941Z,100272.91
2018-12-21T01:17:36.904Z,100275.91
2018-12-21T01:20:10.228Z,100275.00
2018-12-21T01:22:42.958Z,100272.94
2018-12-21T01:25:18.081Z,100279.42
2018-12-21T01:27:54.593Z,100266.70
2018-12-21T01:30:27.499Z,100264.33
2018-12-21T01:33:00.434Z,100264.94
2018-12-21T01:35:33.462Z,100262.38
2018-12-21T01:38:06.659Z,100263.11
2018-12-21T01:40:39.659Z,100261.77
2018-12-21T01:43:12.785Z,100251.00
2018-12-21T01:45:48.515Z,100244.02
2018-12-21T01:48:23.001Z,100245.88
2018-12-21T01:50:56.077Z,100246.28
2018-12-21T01:53:28.485Z,100243.11
2018-12-21T01:56:01.558Z,100243.61
2018-12-21T01:58:34.355Z,100237.55
2018-12-21T02:01:07.215Z,100230.89
2018-12-21T02:03:39.872Z,100227.20
2018-12-21T02:06:12.066Z,100224.22
2018-12-21T02:08:44.360Z,100213.15
2018-12-21T02:11:17.392Z,100209.55
2018-12-21T02:13:49.584Z,100198.59
2018-12-21T02:16:22.483Z,100198.39
2018-12-21T02:18:55.537Z,100209.27
2018-12-21T02:21:28.466Z,100194.88
2018-12-21T02:24:01.331Z,100194.19
2018-12-21T02:26:34.241Z,100188.94
2018-12-21T02:29:07.691Z,100181.46
2018-12-21T02:31:40.293Z,100181.46
2018-12-21T02:34:12.954Z,100180.02
2018-12-21T02:36:45.717Z,100180.53
2018-12-21T02:39:18.806Z,100184.33
2018-12-21T02:41:51.732Z,100185.87
2018-12-21T02:44:24.645Z,100186.30
2018-12-21T02:46:57.697Z,100183.09
2018-12-21T02:49:30.762Z,100179.73
2018-12-21T02:52:06.835Z,100184.42
2018-12-21T02:54:38.892Z,100173.34
2018-12-21T02:57:11.953Z,100172.13
2018-12-21T02:59:44.072Z,100174.80
2018-12-21T03:02:16.192Z,100171.73
2018-12-21T03:04:49.612Z,100155.28
2018-12-21T03:07:22.298Z,100153.36
2018-12-21T03:09:54.318Z,100150.80
2018-12-21T03:12:27.427Z,100144.84
2018-12-21T03:15:00.564Z,100153.14
2018-12-21T03:17:33.542Z,100141.23
2018-12-21T03:20:06.510Z,100125.73
2018-12-21T03:22:39.314Z,100116.52
2018-12-21T03:25:12.365Z,100112.11
2018-12-21T03:27:45.157Z,100108.73
2018-12-21T03:30:18.188Z,100095.72
2018-12-21T03:32:50.264Z,100095.52
2018-12-21T03:35:23.330Z,100091.61
2018-12-21T03:37:56.936Z,100082.18
2018-12-21T03:40:29.991Z,100077.98
2018-12-21T03:43:03.212Z,100065.18
2018-12-21T03:45:35.934Z,100044.89
2018-12-21T03:48:08.555Z,100035.05
2018-12-21T03:50:41.608Z,100034.44
2018-12-21T03:53:14.522Z,100036.81
2018-12-21T03:55:47.501Z,100025.02
2018-12-21T03:58:20.518Z,100014.95
2018-12-21T04:00:53.301Z,100021.84
2018-12-21T04:03:26.449Z,100010.47
2018-12-21T04:05:59.240Z,100009.05
2018-12-21T04:08:32.239Z,100012.63
2018-12-21T04:11:05.322Z,100011.80
2018-12-21T04:13:39.285Z,100006.06
2018-12-21T04:16:12.349Z,99991.28
2018-12-21T04:18:49.327Z,99985.86
2018-12-21T04:21:21.728Z,99978.47
2018-12-21T04:23:54.729Z,99973.33
2018-12-21T04:26:27.829Z,99967.27
2018-12-21T04:29:00.661Z,99965.34
2018-12-21T04:31:33.684Z,99962.55
2018-12-21T04:34:05.993Z,99952.89
2018-12-21T04:36:38.945Z,99950.83
2018-12-21T04:39:11.833Z,99942.89
2018-12-21T04:41:44.323Z,99941.45
2018-12-21T04:44:17.073Z,99938.66
2018-12-21T04:46:49.839Z,99944.48
2018-12-21T04:49:22.724Z,99935.16
2018-12-21T04:51:59.617Z,99928.66
2018-12-21T04:54:32.706Z,99914.91
2018-12-21T04:57:05.781Z,99911.82
2018-12-21T04:59:37.783Z,99905.52
2018-12-21T05:02:10.973Z,99901.61
2018-12-21T05:04:44.179Z,99894.52
2018-12-21T05:07:16.886Z,99887.28
2018-12-21T05:09:49.802Z,99893.22
2018-12-21T05:12:26.444Z,99886.20
2018-12-21T05:14:59.122Z,99880.87
2018-12-21T05:17:32.081Z,99866.11
2018-12-21T05:20:08.553Z,99860.11
2018-12-21T05:22:41.273Z,99863.33
2018-12-21T05:25:14.428Z,99852.84
2018-12-21T05:27:47.500Z,99839.47
2018-12-21T05:30:20.677Z,99831.75
2018-12-21T05:32:53.841Z,99827.00
2018-12-21T05:35:26.013Z,99831.91
2018-12-21T05:37:58.993Z,99828.05
2018-12-21T05:40:31.967Z,99824.33
2018-12-21T05:43:08.304Z,99815.89
2018-12-21T05:45:40.558Z,99812.04
2018-12-21T05:48:12.718Z,99799.28
2018-12-21T05:50:48.975Z,99789.89
2018-12-21T05:53:21.901Z,99773.20
2018-12-21T05:55:55.097Z,99769.39
2018-12-21T05:58:28.093Z,99761.81
2018-12-21T06:01:01.094Z,99769.02
2018-12-21T06:03:34.045Z,99772.94
2018-12-21T06:06:10.417Z,99769.37
2018-12-21T06:08:43.469Z,99755.13
2018-12-21T06:11:16.341Z,99753.64
2018-12-21T06:13:49.449Z,99750.38
2018-12-21T06:16:26.209Z,99730.69
2018-12-21T06:19:03.193Z,99724.53
2018-12-21T06:21:32.200Z,99713.63
2018-12-21T06:24:05.122Z,99699.51
2018-12-21T06:26:37.933Z,99698.17
2018-12-21T06:29:10.841Z,99689.94
2018-12-21T06:31:43.917Z,99684.38
2018-12-21T06:34:20.034Z,99680.84
2018-12-21T06:36:53.017Z,99674.84
2018-12-21T06:39:25.973Z,99667.86
2018-12-21T06:41:58.997Z,99671.74
2018-12-21T06:44:31.765Z,99671.74
2018-12-21T06:47:04.805Z,99668.38
2018-12-21T06:49:38.127Z,99660.68
2018-12-21T06:52:14.658Z,99652.45
2018-12-21T06:54:51.404Z,99647.89
2018-12-21T06:57:24.152Z,99647.97
2018-12-21T06:59:56.662Z,99640.83
2018-12-21T07:02:29.728Z,99634.98
2018-12-21T07:05:02.825Z,99640.83
2018-12-21T07:07:35.530Z,99632.59
2018-12-21T07:10:07.870Z,99615.56
2018-12-21T07:12:44.311Z,99604.59
2018-12-21T07:15:21.456Z,99598.08
2018-12-21T07:17:58.278Z,99581.98
2018-12-21T07:20:38.369Z,99582.97
2018-12-21T07:23:10.910Z,99568.65
2018-12-21T07:25:48.061Z,99570.80
2018-12-21T07:28:19.173Z,99562.80
2018-12-21T07:30:56.129Z,99553.98
2018-12-21T07:33:32.923Z,99544.36
2018-12-21T07:36:08.486Z,99536.87
2018-12-21T07:38:38.557Z,99529.31
2018-12-21T07:41:15.674Z,99512.55
2018-12-21T07:43:48.461Z,99499.22
2018-12-21T07:46:28.418Z,99498.63
2018-12-21T07:49:01.453Z,99490.13
2018-12-21T07:51:32.349Z,99487.22
2018-12-21T07:54:05.557Z,99477.75
2018-12-21T07:59:12.165Z,99470.56
2018-12-21T08:01:43.196Z,99458.02
2018-12-21T08:04:16.057Z,99451.65
2018-12-21T08:06:49.116Z,99446.77
2018-12-21T08:09:21.998Z,99438.76
2018-12-21T08:11:51.021Z,99436.98
2018-12-21T08:14:27.504Z,99430.31
2018-12-21T08:17:00.201Z,99416.22
2018-12-21T08:19:32.970Z,99415.64
2018-12-21T08:22:05.970Z,99407.46
2018-12-21T08:24:43.624Z,99398.95
2018-12-21T08:27:20.443Z,99386.55
2018-12-21T08:29:57.242Z,99390.86
2018-12-21T08:32:30.095Z,99393.18
2018-12-21T08:35:03.045Z,99390.52
2018-12-21T08:37:35.929Z,99380.14
2018-12-21T08:40:10.172Z,99374.05
2018-12-21T08:42:47.609Z,99369.59
2018-12-21T08:45:24.145Z,99371.97
2018-12-21T08:47:56.325Z,99355.10
2018-12-21T08:50:29.392Z,99354.89
2018-12-21T08:53:02.357Z,99349.09
2018-12-21T08:55:35.530Z,99347.31
2018-12-21T08:58:08.493Z,99348.31
2018-12-21T09:00:46.614Z,99334.72
2018-12-21T09:03:20.418Z,99326.37
2018-12-21T09:06:18.547Z,99316.05
2018-12-21T09:08:55.513Z,99305.83
2018-12-21T09:11:28.412Z,99306.41
2018-12-21T09:14:07.153Z,99293.47
2018-12-21T09:16:43.566Z,99287.63
2018-12-21T09:19:12.881Z,99281.55
2018-12-21T09:21:49.802Z,99269.75
2018-12-21T09:24:22.624Z,99259.34
2018-12-21T09:26:51.785Z,99263.86
2018-12-21T09:29:20.927Z,99259.86
2018-12-21T09:31:50.037Z,99257.19
2018-12-21T09:34:19.165Z,99252.50
2018-12-21T09:36:48.181Z,99236.22
2018-12-21T09:39:17.411Z,99239.81
2018-12-21T09:41:46.437Z,99227.32
2018-12-21T09:44:15.717Z,99223.98
2018-12-21T09:46:44.720Z,99226.19
2018-12-21T09:49:13.798Z,99208.34
2018-12-21T09:51:42.881Z,99204.13
2018-12-21T09:54:13.245Z,99194.83
2018-12-21T09:56:42.389Z,99177.29
2018-12-21T09:59:11.507Z,99169.57
2018-12-21T10:01:40.559Z,99164.79
2018-12-21T10:04:09.543Z,99159.53
2018-12-21T10:06:59.425Z,99156.91
2018-12-21T10:09:28.492Z,99152.94
2018-12-21T10:11:57.490Z,99139.56
2018-12-21T10:14:26.586Z,99130.77
2018-12-21T10:16:55.570Z,99121.20
2018-12-21T10:19:24.682Z,99126.89
2018-12-21T10:21:53.786Z,99118.16
2018-12-21T10:24:22.826Z,99111.14
2018-12-21T10:26:51.886Z,99113.08
2018-12-21T10:30:04.727Z,99097.15
2018-12-21T10:32:34.445Z,99094.44
2018-12-21T10:35:27.318Z,99091.58
2018-12-21T10:37:56.502Z,99078.20
2018-12-21T10:40:25.581Z,99074.94
2018-12-21T10:42:54.757Z,99065.35
2018-12-21T10:45:24.477Z,99066.44
2018-12-21T10:48:01.141Z,99062.02
2018-12-21T10:50:43.353Z,99057.92
2018-12-21T10:53:22.849Z,99050.75
2018-12-21T10:55:55.634Z,99051.80
2018-12-21T10:58:24.925Z,99034.77
2018-12-21T11:01:01.182Z,99044.44
2018-12-21T11:03:33.862Z,99050.41
2018-12-21T11:06:10.619Z,99030.09
2018-12-21T11:08:39.564Z,99034.32
2018-12-21T11:11:08.724Z,99042.64
2018-12-21T11:13:37.857Z,99037.42
2018-12-21T11:16:27.653Z,99024.17
2018-12-21T11:19:05.042Z,99013.02
2018-12-21T11:21:34.159Z,99016.80
2018-12-21T11:24:10.478Z,99006.93
2018-12-21T11:26:47.329Z,99011.84
2018-12-21T11:29:19.765Z,98996.45
2018-12-21T11:31:48.777Z,98997.34
2018-12-21T11:34:25.345Z,98999.29
2018-12-21T11:36:58.425Z,98990.26
2018-12-21T11:39:53.793Z,98992.19
2018-12-21T11:43:03.693Z,98984.52
2018-12-21T11:45:43.093Z,98992.67
2018-12-21T11:48:20.901Z,98983.33
2018-12-21T11:50:50.137Z,98979.43
2018-12-21T11:53:20.082Z,98973.86
2018-12-21T11:56:37.649Z,98966.58
2018-12-21T11:59:06.670Z,98963.41
2018-12-21T12:02:02.081Z,98963.42
2018-12-21T12:04:39.860Z,98963.49
2018-12-21T12:07:36.726Z,98972.08
2018-12-21T12:10:14.262Z,98968.38
2018-12-21T12:13:11.977Z,98963.02
2018-12-21T12:15:41.111Z,98957.87
2018-12-21T12:18:14.061Z,98964.09
2018-12-21T12:20:43.089Z,98961.45
2018-12-21T12:23:12.126Z,98963.63
2018-12-21T12:25:41.281Z,98958.85
2018-12-21T12:28:10.329Z,98958.30
2018-12-21T12:30:39.352Z,98961.01
2018-12-21T12:33:08.434Z,98959.94
2018-12-21T12:35:37.451Z,98957.06
2018-12-21T12:38:06.505Z,98956.59
2018-12-21T12:40:35.557Z,98960.38
2018-12-21T12:43:04.657Z,98953.45
2018-12-21T12:45:33.734Z,98949.13
2018-12-21T12:48:09.878Z,98952.69
2018-12-21T12:50:38.961Z,98948.89
2018-12-21T12:53:15.557Z,98949.48
2018-12-21T12:56:05.989Z,98951.08
2018-12-21T12:58:47.511Z,98956.45
2018-12-21T13:01:20.001Z,98954.05
2018-12-21T13:03:50.873Z,98961.30
2018-12-21T13:06:36.841Z,98970.73
2018-12-21T13:09:08.234Z,98958.38
2018-12-21T13:11:37.877Z,98955.69
2018-12-21T13:14:07.039Z,98958.67
2018-12-21T13:16:36.035Z,98961.36
2018-12-21T13:19:05.237Z,98956.81
2018-12-21T13:21:37.432Z,98965.13
2018-12-21T13:24:06.424Z,98959.50
2018-12-21T13:26:37.549Z,98963.80
2018-12-21T13:29:06.558Z,98956.55
2018-12-21T13:31:35.562Z,98957.08
2018-12-21T13:34:04.761Z,98975.90
2018-12-21T13:36:57.350Z,98972.43
2018-12-21T13:39:26.447Z,98981.84
2018-12-21T13:41:55.676Z,98976.18
2018-12-21T13:44:25.250Z,98991.50
2018-12-21T13:46:54.488Z,99000.38
2018-12-21T13:49:25.499Z,98985.34
2018-12-21T13:51:54.569Z,98997.44
2018-12-21T13:54:23.645Z,98996.13
2018-12-21T13:56:52.729Z,98981.58
2018-12-21T13:59:21.787Z,98992.07
2018-12-21T14:01:51.897Z,99007.12
2018-12-21T14:04:21.102Z,99019.49
2018-12-21T14:06:50.203Z,99031.09
2018-12-21T14:09:19.309Z,99027.59
2018-12-21T14:11:48.326Z,99024.89
2018-12-21T14:14:17.412Z,99034.84
2018-12-21T14:16:52.449Z,99033.50
2018-12-21T14:19:21.512Z,99041.05
2018-12-21T14:21:57.776Z,99046.67
2018-12-21T14:24:26.747Z,99048.30
2018-12-21T14:26:56.876Z,99047.77
2018-12-21T14:29:33.764Z,99066.84
2018-12-21T14:32:10.930Z,99069.00
2018-12-21T14:34:39.929Z,99073.04
2018-12-21T14:37:09.906Z,99094.56
2018-12-21T14:39:38.885Z,99082.20
2018-12-21T14:42:08.006Z,99092.68
2018-12-21T14:44:37.069Z,99102.38
2018-12-21T14:47:14.586Z,99103.97
2018-12-21T14:49:43.713Z,99106.66
2018-12-21T14:52:12.730Z,99099.42
2018-12-21T14:54:41.900Z,99113.15
2018-12-21T14:57:11.069Z,99116.09
2018-12-21T14:59:40.012Z,99127.94
2018-12-21T15:02:09.258Z,99124.97
2018-12-21T15:04:38.925Z,99126.59
2018-12-21T15:07:08.662Z,99130.58
2018-12-21T15:09:39.494Z,99136.00
2018-12-21T15:12:08.649Z,99136.21
2018-12-21T15:14:37.709Z,99129.77
2018-12-21T15:17:06.750Z,99156.66
2018-12-21T15:19:35.876Z,99156.65
2018-12-21T15:22:04.899Z,99157.98
2018-12-21T15:24:34.173Z,99163.36
2018-12-21T15:27:03.231Z,99161.74
2018-12-21T15:29:32.585Z,99152.06
2018-12-21T15:32:01.741Z,99159.56
2018-12-21T15:34:30.736Z,99161.48
2018-12-21T15:36:59.785Z,99169.55
2018-12-21T15:39:28.825Z,99167.64
2018-12-21T15:41:58.242Z,99170.04
2018-12-21T15:44:27.269Z,99173.79
2018-12-21T15:46:56.233Z,99184.02
2018-12-21T15:49:30.164Z,99179.44
2018-12-21T15:51:59.209Z,99188.30
2018-12-21T15:54:28.302Z,99195.84
2018-12-21T15:56:57.329Z,99192.12
2018-12-21T15:59:26.465Z,99203.88
2018-12-21T16:01:55.545Z,99206.05
2018-12-21T16:04:24.606Z,99210.52
2018-12-21T16:06:53.635Z,99217.36
2018-12-21T16:09:22.761Z,99223.36
2018-12-21T16:11:51.861Z,99221.32
2018-12-21T16:14:20.892Z,99222.08
2018-12-21T16:16:49.930Z,99216.94
2018-12-21T16:19:19.914Z,99237.59
2018-12-21T16:21:49.278Z,99240.63
2018-12-21T16:24:18.357Z,99234.40
2018-12-21T16:26:47.373Z,99256.42
2018-12-21T16:29:20.009Z,99242.73
2018-12-21T16:31:49.025Z,99263.51
2018-12-21T16:34:18.045Z,99264.06
2018-12-21T16:36:47.045Z,99266.88
2018-12-21T16:39:23.562Z,99266.83
2018-12-21T16:41:52.766Z,99263.72
2018-12-21T16:44:21.849Z,99270.86
2018-12-21T16:46:50.874Z,99277.05
2018-12-21T16:49:40.385Z,99285.56
2018-12-21T16:52:09.381Z,99284.28
2018-12-21T16:54:38.536Z,99278.32
2018-12-21T16:57:07.544Z,99280.12
2018-12-21T16:59:57.909Z,99291.31
2018-12-21T17:02:26.973Z,99293.55
2018-12-21T17:04:57.057Z,99304.39
2018-12-21T17:07:26.155Z,99315.49
2018-12-21T17:09:55.229Z,99330.98
2018-12-21T17:12:28.406Z,99326.66
2018-12-21T17:15:01.316Z,99322.44
2018-12-21T17:17:34.210Z,99354.63
2018-12-21T17:20:09.543Z,99342.33
2018-12-21T17:22:43.841Z,99341.02
2018-12-21T17:25:16.822Z,99344.66
2018-12-21T17:27:49.993Z,99317.94
2018-12-21T17:30:23.556Z,99353.12
2018-12-21T17:32:56.458Z,99355.89
2018-12-21T17:35:29.029Z,99359.56
2018-12-21T17:37:57.948Z,99364.69
2018-12-21T17:40:27.009Z,99367.38
2018-12-21T17:42:56.001Z,99373.34
2018-12-21T17:45:25.455Z,99375.45
2018-12-21T17:47:54.565Z,99363.07
2018-12-21T17:50:23.681Z,99380.94
2018-12-21T17:52:52.757Z,99388.11
2018-12-21T17:55:21.987Z,99384.52
2018-12-21T17:57:50.993Z,99394.94
2018-12-21T18:00:21.324Z,99388.15
2018-12-21T18:02:53.909Z,99396.58
2018-12-21T18:05:24.157Z,99396.84
2018-12-21T18:07:54.149Z,99408.11
2018-12-21T18:10:23.321Z,99409.95
2018-12-21T18:12:52.449Z,99408.47
2018-12-21T18:15:21.610Z,99409.75
2018-12-21T18:17:50.777Z,99422.09
2018-12-21T18:20:19.984Z,99430.18
2018-12-21T18:22:49.166Z,99432.29
2018-12-21T18:25:21.345Z,99432.95
2018-12-21T18:27:53.381Z,99449.00
2018-12-21T18:30:27.109Z,99441.80
2018-12-21T18:32:56.933Z,99443.49
2018-12-21T18:35:26.403Z,99453.78
2018-12-21T18:38:01.716Z,99458.20
2018-12-21T18:40:31.989Z,99453.47
2018-12-21T18:43:01.309Z,99460.98
2018-12-21T18:45:30.642Z,99472.42
2018-12-21T18:47:59.967Z,99472.56
2018-12-21T18:50:30.268Z,99470.48
2018-12-21T18:52:59.654Z,99473.08
2018-12-21T18:55:29.008Z,99475.23
2018-12-21T18:57:58.669Z,99482.23
2018-12-21T19:00:28.069Z,99485.12
2018-12-21T19:02:57.385Z,99487.80
2018-12-21T19:05:26.769Z,99481.73
2018-12-21T19:07:56.326Z,99492.67
2018-12-21T19:10:25.825Z,99497.62
2018-12-21T19:12:55.135Z,99505.59
2018-12-21T19:15:24.366Z,99502.61
2018-12-21T19:17:53.650Z,99509.25
2018-12-21T19:20:23.012Z,99513.06
2018-12-21T19:22:52.323Z,99509.05
2018-12-21T19:25:21.728Z,99518.61
2018-12-21T19:27:50.989Z,99514.16
2018-12-21T19:30:20.409Z,99506.12
2018-12-21T19:32:49.861Z,99523.20
2018-12-21T19:35:27.337Z,99533.59
2018-12-21T19:37:50.810Z,99528.70
2018-12-21T19:40:20.254Z,99537.31
2018-12-21T19:42:49.665Z,99531.78
2018-12-21T19:45:19.186Z,99524.72
2018-12-21T19:47:48.701Z,99537.81
2018-12-21T19:50:18.198Z,99544.60
2018-12-21T19:52:47.625Z,99536.57
2018-12-21T19:55:31.965Z,99544.47
2018-12-21T19:58:01.479Z,99548.48
2018-12-21T20:00:30.989Z,99547.39
2018-12-21T20:03:00.538Z,99542.83
2018-12-21T20:05:30.045Z,99537.78
2018-12-21T20:07:59.441Z,99561.64
2018-12-21T20:10:28.886Z,99549.86
2018-12-21T20:12:59.231Z,99553.88
2018-12-21T20:15:28.710Z,99556.34
2018-12-21T20:17:58.026Z,99559.63
2018-12-21T20:20:27.650Z,99550.26
2018-12-21T20:22:57.410Z,99562.05
2018-12-21T20:25:26.812Z,99551.73
2018-12-21T20:27:56.277Z,99583.83
2018-12-21T20:30:25.802Z,99582.39
2018-12-21T20:32:55.440Z,99591.30
2018-12-21T20:35:25.006Z,99598.97
2018-12-21T20:37:54.329Z,99604.50
2018-12-21T20:40:23.794Z,99615.66
2018-12-21T20:42:53.170Z,99615.14
2018-12-21T20:45:22.720Z,99613.69
2018-12-21T20:47:52.169Z,99610.14
2018-12-21T20:50:21.421Z,99615.14
2018-12-21T20:52:51.517Z,99624.34
2018-12-21T20:55:20.882Z,99635.34
2018-12-21T20:57:52.489Z,99643.42
2018-12-21T21:00:22.057Z,99635.03
2018-12-21T21:02:51.485Z,99634.86
2018-12-21T21:05:20.940Z,99651.91
2018-12-21T21:07:50.361Z,99646.84
2018-12-21T21:10:20.409Z,99682.69
2018-12-21T21:12:49.800Z,99672.70
2018-12-21T21:15:19.229Z,99666.31
2018-12-21T21:17:48.553Z,99670.88
2018-12-21T21:20:17.903Z,99689.55
2018-12-21T21:22:47.375Z,99668.08
2018-12-21T21:25:16.690Z,99697.58
2018-12-21T21:27:46.012Z,99697.12
2018-12-21T21:30:18.237Z,99709.61
2018-12-21T21:32:47.736Z,99703.90
2018-12-21T21:35:16.970Z,99712.41
2018-12-21T21:37:46.487Z,99706.36
2018-12-21T21:40:18.342Z,99716.94
2018-12-21T21:42:57.218Z,99727.79
2018-12-21T21:45:19.917Z,99729.69
2018-12-21T21:47:49.143Z,99735.67
2018-12-21T21:50:18.233Z,99740.59
2018-12-21T21:52:47.308Z,99732.73
2018-12-21T21:55:16.474Z,99738.66
2018-12-21T21:57:45.618Z,99749.75
2018-12-21T22:00:15.030Z,99755.62
2018-12-21T22:02:44.288Z,99768.84
2018-12-21T22:05:14.321Z,99768.84
2018-12-21T22:07:43.468Z,99772.35
2018-12-21T22:10:12.620Z,99771.73
2018-12-21T22:12:41.661Z,99774.38
2018-12-21T22:15:11.849Z,99778.42
2018-12-21T22:17:40.861Z,99791.18
2018-12-21T22:20:12.265Z,99793.13
2018-12-21T22:22:41.359Z,99787.92
2018-12-21T22:25:10.389Z,99786.41
2018-12-21T22:27:47.723Z,99794.44
2018-12-21T22:30:12.017Z,99803.66
2018-12-21T22:32:41.085Z,99803.83
2018-12-21T22:35:10.038Z,99812.02
2018-12-21T22:37:39.393Z,99808.56
2018-12-21T22:40:08.714Z,99817.20
2018-12-21T22:42:37.664Z,99821.25
2018-12-21T22:45:07.885Z,99826.50
2018-12-21T22:47:36.906Z,99827.63
2018-12-21T22:50:07.329Z,99829.79
2018-12-21T22:52:36.802Z,99833.52
2018-12-21T22:55:07.034Z,99839.56
2018-12-21T22:57:36.261Z,99842.62
2018-12-21T23:00:09.826Z,99851.02
2018-12-21T23:02:38.809Z,99850.78
2018-12-21T23:05:11.109Z,99843.64
2018-12-21T23:07:40.145Z,99848.11
2018-12-21T23:10:09.395Z,99849.09
2018-12-21T23:12:38.489Z,99855.78
2018-12-21T23:15:07.786Z,99866.93
2018-12-21T23:17:37.714Z,99854.75
2018-12-21T23:20:06.998Z,99860.24
2018-12-21T23:22:36.029Z,99863.80
2018-12-21T23:25:05.690Z,99869.91
2018-12-21T23:27:34.762Z,99873.23
2018-12-21T23:30:03.829Z,99880.61
2018-12-21T23:32:32.878Z,99875.72
2018-12-21T23:35:01.997Z,99878.33
2018-12-21T23:37:31.041Z,99873.06
2018-12-21T23:40:00.100Z,99872.24
2018-12-21T23:42:29.051Z,99874.98
2018-12-21T23:44:58.077Z,99868.89
2018-12-21T23:47:27.172Z,99872.44
2018-12-21T23:49:56.397Z,99882.48
2018-12-21T23:52:25.482Z,99877.20
2018-12-21T23:54:54.970Z,99871.11
2018-12-21T23:57:24.023Z,99875.73
2018-12-21T23:59:53.014Z,99863.69
